Decoded Metar for LRCV (CRAIOVA in ROMANIA) (IATA:CRA) | Meteo·Mobile Aviation Weather
aviador You're here:

LRCV Decoded Metar

CRAIOVA in ROMANIA
Report Time2018-08-19 14:00:00
UTC Time2018-08-19 14:06:43
Flight Rules vfr VFR
WindVRB at 03 kt
Visibility9999 m
Phenomena:N/A
Clouds:N/A
Expected CloudBase > 7,200 ft AGL from Temp-Dew spread
CeilingNone
Temp32°C (ISA +18)
Dew Point14°C (33% RH)
Heat Index31.2°C
QNH1016 hPa
Density Alt2,822 ft
Elevation627 ft
Report Wrong Elevation
Raw Report
METAR LRCV 191400Z VRB03KT CAVOK 32/14 Q1016=

Extra information for LRCV:More info

Metar Taf Metar & Taf Last 4 Metars F.Rules Stats Wind Profile Meteogram Temp Stats Airport Information Weather charts Add Link Nearby VenuesMetar ALERT Operation Metar Decoded Social comments